createdAt,value
2023-05-06T00:00:05.128Z,147.00
2023-05-06T00:01:05.153Z,222.10
2023-05-06T00:02:05.181Z,224.10
2023-05-06T00:03:05.257Z,252.10
2023-05-06T00:04:05.726Z,204.10
2023-05-06T00:05:05.155Z,201.50
2023-05-06T00:06:05.142Z,196.50
2023-05-06T00:07:05.149Z,190.10
2023-05-06T00:08:05.189Z,196.90
2023-05-06T00:09:05.069Z,137.00
2023-05-06T00:10:05.230Z,119.40
2023-05-06T00:11:05.120Z,117.90
2023-05-06T00:12:05.030Z,125.00
2023-05-06T00:13:05.125Z,146.40
2023-05-06T00:14:05.104Z,145.40
2023-05-06T00:15:05.154Z,157.70
2023-05-06T00:16:05.391Z,160.40
2023-05-06T00:17:05.120Z,178.80
2023-05-06T00:18:05.113Z,216.20
2023-05-06T00:19:05.182Z,301.10
2023-05-06T00:20:05.072Z,237.00
2023-05-06T00:21:05.157Z,257.20
2023-05-06T00:22:05.105Z,179.10
2023-05-06T00:23:05.009Z,166.50
2023-05-06T00:24:05.043Z,225.90
2023-05-06T00:25:05.058Z,172.70
2023-05-06T00:26:05.070Z,139.20
2023-05-06T00:27:05.325Z,136.10
2023-05-06T00:28:05.020Z,129.70
2023-05-06T00:29:04.921Z,135.00
2023-05-06T00:30:04.916Z,137.40
2023-05-06T00:31:04.909Z,163.50
2023-05-06T00:32:05.061Z,159.90
2023-05-06T00:33:04.909Z,178.20
2023-05-06T00:34:04.907Z,162.50
2023-05-06T00:35:04.983Z,145.20
2023-05-06T00:36:04.830Z,167.50
2023-05-06T00:37:05.025Z,168.10
2023-05-06T00:38:04.960Z,138.10
2023-05-06T00:39:05.196Z,163.20
2023-05-06T00:40:04.992Z,147.40
2023-05-06T00:41:04.907Z,162.70
2023-05-06T00:42:05.018Z,161.40
2023-05-06T00:43:05.762Z,161.50
2023-05-06T00:44:04.986Z,169.80
2023-05-06T00:45:04.905Z,146.70
2023-05-06T00:46:04.879Z,186.20
2023-05-06T00:47:04.874Z,176.10
2023-05-06T00:48:04.983Z,178.60
2023-05-06T00:49:04.915Z,184.70
2023-05-06T00:50:05.067Z,187.90
2023-05-06T00:51:04.867Z,181.70
2023-05-06T00:52:04.884Z,171.90
2023-05-06T00:53:04.899Z,166.20
2023-05-06T00:54:04.865Z,170.40
2023-05-06T00:55:04.844Z,195.50
2023-05-06T00:56:04.835Z,202.40
2023-05-06T00:57:04.842Z,187.10
2023-05-06T00:58:04.796Z,180.90
2023-05-06T00:59:05.167Z,196.00
2023-05-06T01:00:04.815Z,191.40
2023-05-06T01:01:05.057Z,191.80
2023-05-06T01:02:05.800Z,176.70
2023-05-06T01:03:04.881Z,176.80
2023-05-06T01:04:04.776Z,174.90
2023-05-06T01:05:04.796Z,176.80
2023-05-06T01:06:04.676Z,171.00
2023-05-06T01:07:04.668Z,180.80
2023-05-06T01:08:04.689Z,177.00
2023-05-06T01:09:04.613Z,165.50
2023-05-06T01:10:04.724Z,178.80
2023-05-06T01:11:04.601Z,194.50
2023-05-06T01:12:04.639Z,185.90
2023-05-06T01:13:04.667Z,193.90
2023-05-06T01:14:04.599Z,185.80
2023-05-06T01:15:04.630Z,173.90
2023-05-06T01:16:04.746Z,164.60
2023-05-06T01:17:04.744Z,165.00
2023-05-06T01:18:04.704Z,170.10
2023-05-06T01:19:04.941Z,168.00
2023-05-06T01:20:04.667Z,174.50
2023-05-06T01:21:04.711Z,192.10
2023-05-06T01:22:04.673Z,231.80
2023-05-06T01:23:04.656Z,247.00
2023-05-06T01:24:04.619Z,203.30
2023-05-06T01:25:04.678Z,174.30
2023-05-06T01:26:04.646Z,167.70
2023-05-06T01:27:04.707Z,165.70
2023-05-06T01:28:04.659Z,200.00
2023-05-06T01:29:04.593Z,188.60
2023-05-06T01:30:04.938Z,211.10
2023-05-06T01:31:04.671Z,217.80
2023-05-06T01:32:04.608Z,190.70
2023-05-06T01:33:04.585Z,173.20
2023-05-06T01:34:04.553Z,187.30
2023-05-06T01:35:04.562Z,185.70
2023-05-06T01:36:04.479Z,174.40
2023-05-06T01:37:04.616Z,192.40
2023-05-06T01:38:04.461Z,167.20
2023-05-06T01:39:04.428Z,197.70
2023-05-06T01:40:04.407Z,170.90
2023-05-06T01:41:04.523Z,175.40
2023-05-06T01:42:04.475Z,164.40
2023-05-06T01:43:04.561Z,205.60
2023-05-06T01:44:04.491Z,178.90
2023-05-06T01:45:04.475Z,177.20
2023-05-06T01:46:04.444Z,190.70
2023-05-06T01:47:04.804Z,185.30
2023-05-06T01:48:04.510Z,238.90
2023-05-06T01:49:04.556Z,228.30
2023-05-06T01:50:04.430Z,202.00
2023-05-06T01:51:04.503Z,237.80
2023-05-06T01:52:04.438Z,230.20
2023-05-06T01:53:31.111Z,223.60
2023-05-06T01:54:04.352Z,217.50
2023-05-06T01:55:04.399Z,224.90
2023-05-06T01:56:04.392Z,267.50
2023-05-06T01:57:05.476Z,245.20
2023-05-06T01:58:04.397Z,235.70
2023-05-06T01:59:05.034Z,230.30
2023-05-06T02:00:04.410Z,209.40
2023-05-06T02:01:04.380Z,197.10
2023-05-06T02:02:04.406Z,259.50
2023-05-06T02:03:04.436Z,207.10
2023-05-06T02:04:04.456Z,198.40
2023-05-06T02:05:04.355Z,209.60
2023-05-06T02:06:04.305Z,205.60
2023-05-06T02:07:04.237Z,218.70
2023-05-06T02:08:04.203Z,221.80
2023-05-06T02:09:04.211Z,173.80
2023-05-06T02:10:04.237Z,176.10
2023-05-06T02:11:04.213Z,189.20
2023-05-06T02:12:04.232Z,175.70
2023-05-06T02:13:04.210Z,218.10
2023-05-06T02:14:04.193Z,204.30
2023-05-06T02:15:04.141Z,209.20
2023-05-06T02:16:04.257Z,249.60
2023-05-06T02:17:04.153Z,185.20
2023-05-06T02:18:04.215Z,207.30
2023-05-06T02:19:04.272Z,254.80
2023-05-06T02:20:04.148Z,244.40
2023-05-06T02:21:04.299Z,275.00
2023-05-06T02:22:04.204Z,243.60
2023-05-06T02:23:04.224Z,228.00
2023-05-06T02:24:04.177Z,252.90
2023-05-06T02:25:04.206Z,308.10
2023-05-06T02:26:04.189Z,184.90
2023-05-06T02:27:04.282Z,329.70
2023-05-06T02:28:04.184Z,246.20
2023-05-06T02:29:04.480Z,208.10
2023-05-06T02:30:04.168Z,206.10
2023-05-06T02:31:04.229Z,286.10
2023-05-06T02:32:04.190Z,261.80
2023-05-06T02:33:04.202Z,251.90
2023-05-06T02:34:04.119Z,247.50
2023-05-06T02:35:04.168Z,309.70
2023-05-06T02:36:04.150Z,291.20
2023-05-06T02:37:04.229Z,260.30
2023-05-06T02:38:04.132Z,222.20
2023-05-06T02:39:04.216Z,234.60
2023-05-06T02:40:04.366Z,222.40
2023-05-06T02:41:04.085Z,194.70
2023-05-06T02:42:04.079Z,230.30
2023-05-06T02:43:04.136Z,197.10
2023-05-06T02:44:04.084Z,205.70
2023-05-06T02:45:04.092Z,191.20
2023-05-06T02:46:04.031Z,191.90
2023-05-06T02:47:03.963Z,172.80
2023-05-06T02:48:04.108Z,187.70
2023-05-06T02:49:03.975Z,171.70
2023-05-06T02:50:03.924Z,145.70
2023-05-06T02:51:03.951Z,147.90
2023-05-06T02:52:03.936Z,168.70
2023-05-06T02:53:03.927Z,150.30
2023-05-06T02:54:03.958Z,153.70
2023-05-06T02:55:03.880Z,178.20
2023-05-06T02:56:03.997Z,173.30
2023-05-06T02:57:03.881Z,291.30
2023-05-06T02:58:04.040Z,221.30
2023-05-06T02:59:04.002Z,323.10
2023-05-06T03:00:04.036Z,130.90
2023-05-06T03:01:04.000Z,248.90
2023-05-06T03:02:04.032Z,226.30
2023-05-06T03:03:03.998Z,237.40
2023-05-06T03:04:03.922Z,146.50
2023-05-06T03:05:05.042Z,159.60
2023-05-06T03:06:03.928Z,169.40
2023-05-06T03:07:03.953Z,142.10
2023-05-06T03:08:04.213Z,216.10
2023-05-06T03:09:03.902Z,217.30
2023-05-06T03:10:03.962Z,218.80
2023-05-06T03:11:03.875Z,193.10
2023-05-06T03:12:03.805Z,216.70
2023-05-06T03:13:03.964Z,206.60
2023-05-06T03:14:03.871Z,273.60
2023-05-06T03:15:03.866Z,279.80
2023-05-06T03:16:03.926Z,314.00
2023-05-06T03:17:03.835Z,260.40
2023-05-06T03:18:03.882Z,242.40
2023-05-06T03:19:03.903Z,298.20
2023-05-06T03:20:04.111Z,289.90
2023-05-06T03:21:04.044Z,269.20
2023-05-06T03:22:03.800Z,290.10
2023-05-06T03:23:03.722Z,262.00
2023-05-06T03:24:08.624Z,276.20
2023-05-06T03:25:04.786Z,273.90
2023-05-06T03:26:03.678Z,236.70
2023-05-06T03:27:04.693Z,212.80
2023-05-06T03:28:03.712Z,217.50
2023-05-06T03:29:03.685Z,286.50
2023-05-06T03:30:03.724Z,226.90
2023-05-06T03:31:03.674Z,263.40
2023-05-06T03:32:03.706Z,301.40
2023-05-06T03:33:03.728Z,200.60
2023-05-06T03:34:03.645Z,272.10
2023-05-06T03:35:03.627Z,329.90
2023-05-06T03:36:03.590Z,346.00
2023-05-06T03:37:03.646Z,270.60
2023-05-06T03:38:03.671Z,305.90
2023-05-06T03:39:20.490Z,405.50
2023-05-06T03:40:03.600Z,351.70
2023-05-06T03:41:03.667Z,308.10
2023-05-06T03:42:03.687Z,322.10
2023-05-06T03:43:03.729Z,284.50
2023-05-06T03:44:03.732Z,332.00
2023-05-06T03:45:03.638Z,344.50
2023-05-06T03:46:03.752Z,419.60
2023-05-06T03:47:03.628Z,393.80
2023-05-06T03:48:03.732Z,339.80
2023-05-06T03:49:03.934Z,345.10
2023-05-06T03:50:03.618Z,235.90
2023-05-06T03:51:03.610Z,247.50
2023-05-06T03:52:03.596Z,315.30
2023-05-06T03:53:03.617Z,260.20
2023-05-06T03:54:03.623Z,302.60
2023-05-06T03:55:03.641Z,246.90
2023-05-06T03:56:03.572Z,263.40
2023-05-06T03:57:03.592Z,223.50
2023-05-06T03:58:03.586Z,197.30
2023-05-06T03:59:03.559Z,220.30
2023-05-06T04:00:03.904Z,146.80
2023-05-06T04:01:03.555Z,170.50
2023-05-06T04:02:03.609Z,164.90
2023-05-06T04:03:03.497Z,188.40
2023-05-06T04:04:04.475Z,170.40
2023-05-06T04:05:03.791Z,192.40
2023-05-06T04:06:03.397Z,173.40
2023-05-06T04:07:03.384Z,167.80
2023-05-06T04:08:03.418Z,186.10
2023-05-06T04:09:03.570Z,167.40
2023-05-06T04:10:03.412Z,210.60
2023-05-06T04:11:03.497Z,200.50
2023-05-06T04:12:03.367Z,236.50
2023-05-06T04:13:03.555Z,329.20
2023-05-06T04:14:03.521Z,238.20
2023-05-06T04:15:03.416Z,239.40
2023-05-06T04:16:03.532Z,239.30
2023-05-06T04:17:03.408Z,231.20
2023-05-06T04:18:03.452Z,228.60
2023-05-06T04:19:05.079Z,234.40
2023-05-06T04:20:03.391Z,189.40
2023-05-06T04:21:03.437Z,192.10
2023-05-06T04:22:04.432Z,219.20
2023-05-06T04:23:03.715Z,205.20
2023-05-06T04:24:03.389Z,257.00
2023-05-06T04:25:03.410Z,226.20
2023-05-06T04:26:03.351Z,205.10
2023-05-06T04:27:03.426Z,179.30
2023-05-06T04:28:03.404Z,192.30
2023-05-06T04:29:03.332Z,195.60
2023-05-06T04:30:03.242Z,232.10
2023-05-06T04:31:03.239Z,184.10
2023-05-06T04:32:03.348Z,165.20
2023-05-06T04:33:03.278Z,162.50
2023-05-06T04:34:03.236Z,180.40
2023-05-06T04:35:03.185Z,141.50
2023-05-06T04:36:03.313Z,135.30
2023-05-06T04:37:03.169Z,132.20
2023-05-06T04:38:03.221Z,137.30
2023-05-06T04:39:03.177Z,182.10
2023-05-06T04:40:03.196Z,131.10
2023-05-06T04:41:03.246Z,152.50
2023-05-06T04:42:03.277Z,150.10
2023-05-06T04:43:03.284Z,136.90
2023-05-06T04:44:03.244Z,147.50
2023-05-06T04:45:03.246Z,133.20
2023-05-06T04:46:03.307Z,130.70
2023-05-06T04:47:03.223Z,124.60
2023-05-06T04:48:03.240Z,127.10
2023-05-06T04:49:03.499Z,125.60
2023-05-06T04:50:03.203Z,122.80
2023-05-06T04:51:03.244Z,116.70
2023-05-06T04:52:03.162Z,138.70
2023-05-06T04:53:03.260Z,165.90
2023-05-06T04:54:03.234Z,131.30
2023-05-06T04:55:03.228Z,132.80
2023-05-06T04:56:03.108Z,131.90
2023-05-06T04:57:03.178Z,134.80
2023-05-06T04:58:03.132Z,146.30
2023-05-06T04:59:03.108Z,151.40
2023-05-06T05:00:03.085Z,139.20
2023-05-06T05:01:03.117Z,137.70
2023-05-06T05:02:03.077Z,157.30
2023-05-06T05:03:03.107Z,164.30
2023-05-06T05:04:02.971Z,128.00
2023-05-06T05:05:02.994Z,139.70
2023-05-06T05:06:02.984Z,150.20
2023-05-06T05:07:02.960Z,110.40
2023-05-06T05:08:02.991Z,126.60
2023-05-06T05:09:02.969Z,125.70
2023-05-06T05:10:02.995Z,136.10
2023-05-06T05:11:03.216Z,111.30
2023-05-06T05:12:02.926Z,125.60
2023-05-06T05:13:03.078Z,123.50
2023-05-06T05:14:03.059Z,125.40
2023-05-06T05:15:03.045Z,125.70
2023-05-06T05:16:03.087Z,129.50
2023-05-06T05:17:03.050Z,110.70
2023-05-06T05:18:03.368Z,115.30
2023-05-06T05:19:03.761Z,136.90
2023-05-06T05:20:04.045Z,130.90
2023-05-06T05:21:02.943Z,191.00
2023-05-06T05:22:03.046Z,134.20
2023-05-06T05:23:02.955Z,142.10
2023-05-06T05:24:02.948Z,134.30
2023-05-06T05:25:02.928Z,129.50
2023-05-06T05:26:02.921Z,132.50
2023-05-06T05:27:02.995Z,135.00
2023-05-06T05:28:02.922Z,172.70
2023-05-06T05:29:04.200Z,214.20
2023-05-06T05:30:02.908Z,169.30
2023-05-06T05:31:02.974Z,171.80
2023-05-06T05:32:03.954Z,203.50
2023-05-06T05:33:03.049Z,203.70
2023-05-06T05:34:02.885Z,235.60
2023-05-06T05:35:02.908Z,181.60
2023-05-06T05:36:02.878Z,211.90
2023-05-06T05:37:02.912Z,186.70
2023-05-06T05:38:02.773Z,185.80
2023-05-06T05:39:02.784Z,182.70
2023-05-06T05:40:02.826Z,230.10
2023-05-06T05:41:02.815Z,195.10
2023-05-06T05:42:02.731Z,170.10
2023-05-06T05:43:02.810Z,186.80
2023-05-06T05:44:02.687Z,158.10
2023-05-06T05:45:02.759Z,199.80
2023-05-06T05:48:10.861Z,199.70
2023-05-06T05:48:12.501Z,187.80
2023-05-06T05:49:12.593Z,204.40
2023-05-06T05:50:12.560Z,242.90
2023-05-06T05:51:12.524Z,223.00
2023-05-06T05:52:12.514Z,239.50
2023-05-06T05:53:12.565Z,244.20
2023-05-06T05:54:12.509Z,186.40
2023-05-06T05:55:12.488Z,180.80
2023-05-06T05:56:12.478Z,174.60
2023-05-06T05:57:12.444Z,155.90
2023-05-06T05:58:12.479Z,160.30
2023-05-06T05:59:12.454Z,177.80
2023-05-06T06:00:13.585Z,176.20
2023-05-06T06:01:13.479Z,184.90
2023-05-06T06:02:12.430Z,189.00
2023-05-06T06:03:12.688Z,158.50
2023-05-06T06:04:12.635Z,210.90
2023-05-06T06:05:12.561Z,216.60
2023-05-06T06:06:12.473Z,194.20
2023-05-06T06:07:12.508Z,170.80
2023-05-06T06:08:12.571Z,167.80
2023-05-06T06:09:12.592Z,161.80
2023-05-06T06:10:12.469Z,162.20
2023-05-06T06:11:12.518Z,159.00
2023-05-06T06:12:12.345Z,154.50
2023-05-06T06:13:12.595Z,175.70
2023-05-06T06:14:13.052Z,190.30
2023-05-06T06:15:12.418Z,182.70
2023-05-06T06:16:12.439Z,195.10
2023-05-06T06:17:12.387Z,213.70
2023-05-06T06:18:12.429Z,194.30
2023-05-06T06:19:12.401Z,179.10
2023-05-06T06:20:12.460Z,181.60
2023-05-06T06:21:12.397Z,196.50
2023-05-06T06:22:12.350Z,251.50
2023-05-06T06:23:12.284Z,226.40
2023-05-06T06:24:12.305Z,247.80
2023-05-06T06:25:12.383Z,234.30
2023-05-06T06:26:12.546Z,186.80
2023-05-06T06:27:13.231Z,229.60
2023-05-06T06:28:12.319Z,225.90
2023-05-06T06:29:12.256Z,158.90
2023-05-06T06:30:12.209Z,173.80
2023-05-06T06:31:12.640Z,157.00
2023-05-06T06:32:12.265Z,159.40
2023-05-06T06:33:12.178Z,162.30
2023-05-06T06:34:12.402Z,177.00
2023-05-06T06:35:12.214Z,200.80
2023-05-06T06:36:12.324Z,223.60
2023-05-06T06:37:12.206Z,202.90
2023-05-06T06:38:17.774Z,260.00
2023-05-06T06:39:13.181Z,211.70
2023-05-06T06:40:12.295Z,240.00
2023-05-06T06:41:12.243Z,235.80
2023-05-06T06:42:12.314Z,270.70
2023-05-06T06:43:12.274Z,265.50
2023-05-06T06:44:12.203Z,237.70
2023-05-06T06:45:30.592Z,225.80
2023-05-06T06:46:13.159Z,246.50
2023-05-06T06:47:12.237Z,208.90
2023-05-06T06:48:12.217Z,283.10
2023-05-06T06:49:12.186Z,193.10
2023-05-06T06:50:12.236Z,271.00
2023-05-06T06:51:12.553Z,246.60
2023-05-06T06:52:23.787Z,212.70
2023-05-06T06:53:13.074Z,186.80
2023-05-06T06:54:12.064Z,180.80
2023-05-06T06:55:12.401Z,168.90
2023-05-06T06:56:12.226Z,145.20
2023-05-06T06:57:12.208Z,185.80
2023-05-06T06:58:12.582Z,169.10
2023-05-06T06:59:12.175Z,175.10
2023-05-06T07:00:27.542Z,181.90
2023-05-06T07:01:12.114Z,196.80
2023-05-06T07:02:11.978Z,165.80
2023-05-06T07:03:12.130Z,181.30
2023-05-06T07:04:12.374Z,186.40
2023-05-06T07:05:12.254Z,150.60
2023-05-06T07:06:12.078Z,173.70
2023-05-06T07:07:12.063Z,196.30
2023-05-06T07:08:12.042Z,219.80
2023-05-06T07:09:12.022Z,228.50
2023-05-06T07:10:12.059Z,159.80
2023-05-06T07:11:29.046Z,210.10
2023-05-06T07:12:12.061Z,222.00
2023-05-06T07:13:12.095Z,181.70
2023-05-06T07:14:12.174Z,205.40
2023-05-06T07:15:12.249Z,176.90
2023-05-06T07:16:12.105Z,238.70
2023-05-06T07:17:12.090Z,219.10
2023-05-06T07:18:12.007Z,378.70
2023-05-06T07:19:11.989Z,309.10
2023-05-06T07:20:12.194Z,318.30
2023-05-06T07:21:12.196Z,345.60
2023-05-06T07:22:11.930Z,293.70
2023-05-06T07:23:11.912Z,275.00
2023-05-06T07:24:12.018Z,282.80
2023-05-06T07:25:12.127Z,316.70
2023-05-06T07:26:11.951Z,337.70
2023-05-06T07:27:11.926Z,301.70
2023-05-06T07:28:11.961Z,304.40
2023-05-06T07:29:11.941Z,285.40
2023-05-06T07:30:11.935Z,298.10
2023-05-06T07:31:12.030Z,274.60
2023-05-06T07:32:11.929Z,294.80
2023-05-06T07:33:12.086Z,321.20
2023-05-06T07:34:11.836Z,353.70
2023-05-06T07:35:12.162Z,260.90
2023-05-06T07:36:11.948Z,236.50
2023-05-06T07:37:12.189Z,266.90
2023-05-06T07:38:30.633Z,219.50
2023-05-06T07:39:12.929Z,297.90
2023-05-06T07:40:11.840Z,196.20
2023-05-06T07:41:11.809Z,215.30
2023-05-06T07:42:11.955Z,221.50
2023-05-06T07:43:11.818Z,236.30
2023-05-06T07:44:11.704Z,188.60
2023-05-06T07:45:11.922Z,196.50
2023-05-06T07:46:11.703Z,274.10
2023-05-06T07:47:11.863Z,205.90
2023-05-06T07:48:11.725Z,190.80
2023-05-06T07:49:12.528Z,225.60
2023-05-06T07:50:11.693Z,237.80
2023-05-06T07:51:11.823Z,200.80
2023-05-06T07:52:11.696Z,210.90
2023-05-06T07:53:11.762Z,244.30
2023-05-06T07:54:11.650Z,315.00
2023-05-06T07:55:11.826Z,358.70
2023-05-06T07:56:11.668Z,436.80
2023-05-06T07:57:11.728Z,290.70
2023-05-06T07:58:11.884Z,299.90
2023-05-06T07:59:11.709Z,344.70
2023-05-06T08:00:12.484Z,344.60
2023-05-06T08:01:11.672Z,347.70
2023-05-06T08:02:11.757Z,366.40
2023-05-06T08:03:11.762Z,344.70
2023-05-06T08:04:11.726Z,441.40
2023-05-06T08:05:11.842Z,362.10
2023-05-06T08:06:11.988Z,513.10
2023-05-06T08:07:11.666Z,440.20
2023-05-06T08:08:11.628Z,389.30
2023-05-06T08:09:14.874Z,412.20
2023-05-06T08:10:13.674Z,402.30
2023-05-06T08:11:11.619Z,442.10
2023-05-06T08:12:11.567Z,454.40
2023-05-06T08:13:12.004Z,456.20
2023-05-06T08:14:11.737Z,469.80
2023-05-06T08:15:12.231Z,474.90
2023-05-06T08:16:19.417Z,433.50
2023-05-06T08:17:11.632Z,450.40
2023-05-06T08:18:21.861Z,450.60
2023-05-06T08:19:13.636Z,570.50
2023-05-06T08:20:14.574Z,525.70
2023-05-06T08:21:11.591Z,439.60
2023-05-06T08:22:11.588Z,508.90
2023-05-06T08:23:25.551Z,505.20
2023-05-06T08:24:12.539Z,500.80
2023-05-06T08:25:11.783Z,520.00
2023-05-06T08:26:11.456Z,514.00
2023-05-06T08:27:11.484Z,520.30
2023-05-06T08:28:11.538Z,459.20
2023-05-06T08:29:11.483Z,487.10
2023-05-06T08:30:11.455Z,521.20
2023-05-06T08:31:11.554Z,485.40
2023-05-06T08:32:11.609Z,502.80
2023-05-06T08:33:11.549Z,445.80
2023-05-06T08:34:11.553Z,473.40
2023-05-06T08:35:11.770Z,495.30
2023-05-06T08:36:11.526Z,479.60
2023-05-06T08:37:11.413Z,399.10
2023-05-06T08:38:11.505Z,442.90
2023-05-06T08:39:11.448Z,503.20
2023-05-06T08:40:11.605Z,478.40
2023-05-06T08:41:11.602Z,431.10
2023-05-06T08:42:11.494Z,513.20
2023-05-06T08:43:11.818Z,488.20
2023-05-06T08:44:11.504Z,475.10
2023-05-06T08:45:11.735Z,453.40
2023-05-06T08:46:11.904Z,456.60
2023-05-06T08:47:12.571Z,534.00
2023-05-06T08:48:11.376Z,603.50
2023-05-06T08:49:11.443Z,541.80
2023-05-06T08:50:11.600Z,598.50
2023-05-06T08:51:12.575Z,612.90
2023-05-06T08:52:11.842Z,581.70
2023-05-06T08:53:11.955Z,600.10
2023-05-06T08:54:11.463Z,518.60
2023-05-06T08:55:11.942Z,617.80
2023-05-06T08:56:11.407Z,570.70
2023-05-06T08:57:12.432Z,639.20
2023-05-06T08:58:12.428Z,531.80
2023-05-06T08:59:11.706Z,648.40
2023-05-06T09:00:11.379Z,635.00
2023-05-06T09:01:11.422Z,631.30
2023-05-06T09:02:11.303Z,669.10
2023-05-06T09:03:11.346Z,653.40
2023-05-06T09:04:11.158Z,528.60
2023-05-06T09:05:12.082Z,507.60
2023-05-06T09:06:11.893Z,661.50
2023-05-06T09:07:11.977Z,717.60
2023-05-06T09:08:11.811Z,680.20
2023-05-06T09:09:11.358Z,598.40
2023-05-06T09:10:16.186Z,383.80
2023-05-06T09:11:12.422Z,427.00
2023-05-06T09:12:11.313Z,381.70
2023-05-06T09:13:11.412Z,487.00
2023-05-06T09:14:11.788Z,712.60
2023-05-06T09:15:11.407Z,693.60
2023-05-06T09:16:11.497Z,604.30
2023-05-06T09:17:11.250Z,601.60
2023-05-06T09:18:11.294Z,676.50
2023-05-06T09:19:11.214Z,631.40
2023-05-06T09:20:11.165Z,589.60
2023-05-06T09:21:11.176Z,724.50
2023-05-06T09:22:11.169Z,706.50
2023-05-06T09:23:11.134Z,656.80
2023-05-06T09:24:11.289Z,610.00
2023-05-06T09:25:12.104Z,675.70
2023-05-06T09:26:11.432Z,469.60
2023-05-06T09:27:12.318Z,394.90
2023-05-06T09:28:11.315Z,418.30
2023-05-06T09:29:11.639Z,416.90
2023-05-06T09:30:11.325Z,436.50
2023-05-06T09:31:12.421Z,656.80
2023-05-06T09:32:11.264Z,461.30
2023-05-06T09:33:11.271Z,418.10
2023-05-06T09:34:11.035Z,400.20
2023-05-06T09:35:11.431Z,407.40
2023-05-06T09:36:10.955Z,343.80
2023-05-06T09:37:10.987Z,393.90
2023-05-06T09:38:11.087Z,457.10
2023-05-06T09:39:10.959Z,431.90
2023-05-06T09:40:11.160Z,630.20
2023-05-06T09:41:11.119Z,636.10
2023-05-06T09:42:12.134Z,633.20
2023-05-06T09:43:10.978Z,552.80
2023-05-06T09:44:11.122Z,565.80
2023-05-06T09:45:11.381Z,530.00
2023-05-06T09:46:11.725Z,441.20
2023-05-06T09:47:11.338Z,444.40
2023-05-06T09:48:11.372Z,406.70
2023-05-06T09:49:11.245Z,354.10
2023-05-06T09:50:11.065Z,351.50
2023-05-06T09:51:11.175Z,341.80
2023-05-06T09:52:15.159Z,295.90
2023-05-06T09:53:11.048Z,331.60
2023-05-06T09:54:11.177Z,297.70
2023-05-06T09:55:11.252Z,406.50
2023-05-06T09:56:11.276Z,582.40
2023-05-06T09:57:11.524Z,567.90
2023-05-06T09:58:11.412Z,540.40
2023-05-06T09:59:10.996Z,560.30
2023-05-06T10:00:10.999Z,415.30
2023-05-06T10:01:12.074Z,312.30
2023-05-06T10:02:10.891Z,205.50
2023-05-06T10:03:10.892Z,270.30
2023-05-06T10:04:22.639Z,214.70
2023-05-06T10:05:11.154Z,162.00
2023-05-06T10:06:10.793Z,217.70
2023-05-06T10:07:13.241Z,103.40
2023-05-06T10:08:12.556Z,321.10
2023-05-06T10:09:10.807Z,177.40
2023-05-06T10:10:11.038Z,255.40
2023-05-06T10:11:11.312Z,92.50
2023-05-06T10:12:11.364Z,89.00
2023-05-06T10:13:11.333Z,97.90
2023-05-06T10:14:11.143Z,118.60
2023-05-06T10:15:11.553Z,129.50
2023-05-06T10:16:11.000Z,277.30
2023-05-06T10:17:10.764Z,41.00
2023-05-06T10:18:11.044Z,46.80
2023-05-06T10:19:11.169Z,19.40
2023-05-06T10:20:11.037Z,23.30
2023-05-06T10:21:11.293Z,41.80
2023-05-06T10:22:10.989Z,73.90
2023-05-06T10:23:11.147Z,133.90
2023-05-06T10:24:11.525Z,117.60
2023-05-06T10:25:11.314Z,343.10
2023-05-06T10:26:19.073Z,666.00
2023-05-06T10:27:10.833Z,299.60
2023-05-06T10:28:12.763Z,150.10
2023-05-06T10:29:12.776Z,394.40
2023-05-06T10:30:11.293Z,170.00
2023-05-06T10:31:11.112Z,343.40
2023-05-06T10:32:10.619Z,388.20
2023-05-06T10:33:11.029Z,310.90
2023-05-06T10:34:11.260Z,286.00
2023-05-06T10:35:11.181Z,290.50
2023-05-06T10:36:10.954Z,196.40
2023-05-06T10:37:10.986Z,144.70
2023-05-06T10:38:10.987Z,140.50
2023-05-06T10:39:10.854Z,168.40
2023-05-06T10:40:10.925Z,116.30
2023-05-06T10:41:11.029Z,59.40
2023-05-06T10:42:10.773Z,52.30
2023-05-06T10:43:18.811Z,33.70
2023-05-06T10:44:11.504Z,22.70
2023-05-06T10:45:10.879Z,52.50
2023-05-06T10:46:10.848Z,53.70
2023-05-06T10:47:10.570Z,57.20
2023-05-06T10:48:10.931Z,88.10
2023-05-06T10:49:10.580Z,178.70
2023-05-06T10:50:10.587Z,75.60
2023-05-06T10:51:10.651Z,22.00
2023-05-06T10:52:11.244Z,11.80
2023-05-06T10:53:10.594Z,18.50
2023-05-06T10:54:10.486Z,14.10
2023-05-06T10:55:10.860Z,51.80
2023-05-06T10:56:10.661Z,56.80
2023-05-06T10:57:10.685Z,66.20
2023-05-06T10:58:10.708Z,24.10
2023-05-06T10:59:11.144Z,15.30
2023-05-06T11:00:10.603Z,13.50
2023-05-06T11:01:10.688Z,12.00
2023-05-06T11:02:10.527Z,9.90
2023-05-06T11:03:10.555Z,10.10
2023-05-06T11:04:10.692Z,10.10
2023-05-06T11:05:10.595Z,7.90
2023-05-06T11:06:10.479Z,26.90
2023-05-06T11:07:10.947Z,9.50
2023-05-06T11:08:10.809Z,9.60
2023-05-06T11:09:10.787Z,10.80
2023-05-06T11:10:10.950Z,7.90
2023-05-06T11:11:10.570Z,9.20
2023-05-06T11:12:10.728Z,11.00
2023-05-06T11:13:10.650Z,11.20
2023-05-06T11:14:10.477Z,10.80
2023-05-06T11:15:11.175Z,7.40
2023-05-06T11:16:10.519Z,7.30
2023-05-06T11:17:11.067Z,7.30
2023-05-06T11:18:10.886Z,10.40
2023-05-06T11:19:10.680Z,12.70
2023-05-06T11:20:11.177Z,11.70
2023-05-06T11:21:10.436Z,33.20
2023-05-06T11:22:10.431Z,28.30
2023-05-06T11:23:10.520Z,28.20
2023-05-06T11:24:10.598Z,28.90
2023-05-06T11:25:10.592Z,100.80
2023-05-06T11:26:10.822Z,47.80
2023-05-06T11:27:10.443Z,57.70
2023-05-06T11:28:10.490Z,63.90
2023-05-06T11:29:10.517Z,43.70
2023-05-06T11:30:10.875Z,23.40
2023-05-06T11:31:10.405Z,30.00
2023-05-06T11:32:10.188Z,92.00
2023-05-06T11:33:10.365Z,23.50
2023-05-06T11:34:10.206Z,23.30
2023-05-06T11:35:10.569Z,45.20
2023-05-06T11:36:13.812Z,19.20
2023-05-06T11:37:10.319Z,11.60
2023-05-06T11:38:10.379Z,24.40
2023-05-06T11:39:10.304Z,46.70
2023-05-06T11:40:10.673Z,13.00
2023-05-06T11:41:10.201Z,33.60
2023-05-06T11:42:10.273Z,12.70
2023-05-06T11:43:10.185Z,16.50
2023-05-06T11:44:11.459Z,19.70
2023-05-06T11:45:11.197Z,22.80
2023-05-06T11:46:10.463Z,29.20
2023-05-06T11:47:10.393Z,28.40
2023-05-06T11:48:10.294Z,29.60
2023-05-06T11:49:10.272Z,21.90
2023-05-06T11:50:10.562Z,21.20
2023-05-06T11:51:10.602Z,14.50
2023-05-06T11:52:10.838Z,29.60
2023-05-06T11:53:10.699Z,24.00
2023-05-06T11:54:11.098Z,23.90
2023-05-06T11:55:11.010Z,15.70
2023-05-06T11:56:10.430Z,25.10
2023-05-06T11:57:10.513Z,21.60
2023-05-06T11:58:10.587Z,20.60
2023-05-06T11:59:10.433Z,17.40
2023-05-06T12:00:10.410Z,16.90
2023-05-06T12:01:10.177Z,20.40
2023-05-06T12:02:10.296Z,22.20
2023-05-06T12:03:10.201Z,16.40
2023-05-06T12:04:10.894Z,12.10
2023-05-06T12:05:11.240Z,12.70
2023-05-06T12:06:10.355Z,18.90
2023-05-06T12:07:10.163Z,31.40
2023-05-06T12:08:23.445Z,25.60
2023-05-06T12:09:12.099Z,25.20
2023-05-06T12:10:10.759Z,20.00
2023-05-06T12:11:10.316Z,18.30
2023-05-06T12:12:10.103Z,14.80
2023-05-06T12:13:10.286Z,22.50
2023-05-06T12:14:10.416Z,12.20
2023-05-06T12:15:10.596Z,15.40
2023-05-06T12:16:10.223Z,15.10
2023-05-06T12:17:10.086Z,21.60
2023-05-06T12:18:10.673Z,20.60
2023-05-06T12:19:09.961Z,11.90
2023-05-06T12:20:10.558Z,14.00
2023-05-06T12:21:11.633Z,15.90
2023-05-06T12:22:10.625Z,13.90
2023-05-06T12:23:10.584Z,16.10
2023-05-06T12:24:13.668Z,12.30
2023-05-06T12:25:10.170Z,24.40
2023-05-06T12:26:10.139Z,10.50
2023-05-06T12:27:09.996Z,18.10
2023-05-06T12:28:10.085Z,18.80
2023-05-06T12:29:10.037Z,19.50
2023-05-06T12:30:10.533Z,13.60
2023-05-06T12:31:10.533Z,15.40
2023-05-06T12:32:10.190Z,11.20
2023-05-06T12:33:10.519Z,10.30